Crawford, Texas
Current Conditions -  °F | °C
As of 12:15 AM on Thursday 23 Oct 2014 (Local Time) from KPWG Reporting Station
Clear Clear  
Wind Chill: 68°   Ceiling: Unl
Heat Index: 68°   Visibility: 10mi
Dew Point: 54°   Wind: 7mph
Humidity: 60%   Direction: 150°SSE
Pressure: 30.12"   Gusts: NA
Location:  31.53°N, 97.44°W
Report Text: KPWG 230515Z AUTO 15006KT 10SM CLR 20/12 A3012 RMK AO1
Loading
Personal Weather Stations






























Interactive Weather Map
Tropical Storm Tracking
New forecast layout! Learn more

10-Day Weather Forecast

Advertisements
Track Severe Weather on mobile